aviador You're here:

KMSP Decoded Metar

MINNEAPOLIS in MN, USA
Report Time2017-05-23 13:53:00
UTC Time2017-05-23 14:38:50
Flight Rules vfr VFR
Wind010° at 04 kt
W.Decomp.*RWY 35: 3.8 kt HW 1.4 kt RCW
RWY 04: 3.5 kt HW 2 kt LCW
RWY 30: 1.4 kt HW 3.8 kt RCW
W.Rank010° ranks 19
Current wind is below 010° avg. (7.9)
Visibility9999 m
Phenomena:N/A
Clouds:Few 015 Hf
Broken 080 Hf
Overcast 140 Hf
Expected CloudBase > 1,600 ft AGL from Temp-Dew spread
Ceiling8,000 ft
Temp12°C (ISA -1)
Dew Point08°C (77% RH)
AAT10.1°C
QNH1010 hPa
Density Alt968 ft
Elevation869 ft
Report Wrong Elevation
Raw Report
METAR KMSP 231353Z 01004KT 10SM FEW015 BKN080 OVC140 12/08 A2982 RMK
AO2 SLP100 T01220078=

Extra information for KMSP:More info

Metar Taf Metar & Taf Last 4 Metars F.Rules Stats Wind Profile Meteogram Temp Stats Airport Information Weather charts Add Link Nearby VenuesMetar ALERT Operation Metar Decoded Social comments

AIRNAV info for KMSP